createdAt,value
2023-05-01T00:02:06.757Z,2.20
2023-05-01T00:04:33.916Z,4.85
2023-05-01T00:07:00.328Z,1.45
2023-05-01T00:09:29.826Z,4.13
2023-05-01T00:11:56.178Z,4.90
2023-05-01T00:14:22.564Z,3.00
2023-05-01T00:16:49.372Z,6.50
2023-05-01T00:19:18.622Z,1.83
2023-05-01T00:21:48.708Z,3.30
2023-05-01T00:24:16.997Z,1.63
2023-05-01T00:26:44.217Z,3.10
2023-05-01T00:29:10.818Z,2.72
2023-05-01T00:31:37.269Z,4.18
2023-05-01T00:34:05.101Z,3.53
2023-05-01T00:36:32.490Z,2.28
2023-05-01T00:38:59.241Z,3.03
2023-05-01T00:41:25.669Z,1.65
2023-05-01T00:43:52.094Z,1.52
2023-05-01T00:46:19.146Z,3.40
2023-05-01T00:48:45.591Z,4.03
2023-05-01T00:51:12.832Z,2.67
2023-05-01T00:53:41.480Z,1.50
2023-05-01T00:56:08.543Z,1.42
2023-05-01T00:58:34.910Z,2.83
2023-05-01T01:01:02.180Z,1.23
2023-05-01T01:03:28.786Z,4.53
2023-05-01T01:06:04.744Z,3.72
2023-05-01T01:08:39.802Z,2.58
2023-05-01T01:11:11.863Z,6.50
2023-05-01T01:13:58.115Z,4.15
2023-05-01T01:17:06.371Z,2.50
2023-05-01T01:20:03.990Z,2.45
2023-05-01T01:22:31.524Z,1.80
2023-05-01T01:25:28.033Z,1.20
2023-05-01T01:28:16.757Z,1.48
2023-05-01T01:31:09.509Z,3.07
2023-05-01T01:33:57.273Z,1.55
2023-05-01T01:36:39.925Z,2.03
2023-05-01T01:39:14.495Z,3.35
2023-05-01T01:41:46.516Z,1.83
2023-05-01T01:44:20.979Z,2.80
2023-05-01T01:46:50.389Z,2.40
2023-05-01T01:49:27.669Z,2.17
2023-05-01T01:51:56.954Z,2.85
2023-05-01T01:54:33.486Z,2.00
2023-05-01T01:57:02.527Z,2.23
2023-05-01T01:59:33.540Z,1.88
2023-05-01T02:02:02.179Z,1.58
2023-05-01T02:04:30.229Z,2.75
2023-05-01T02:06:58.493Z,2.25
2023-05-01T02:09:27.909Z,5.33
2023-05-01T02:11:55.947Z,4.75
2023-05-01T02:14:26.234Z,2.38
2023-05-01T02:16:53.857Z,2.60
2023-05-01T02:19:21.193Z,1.88
2023-05-01T02:21:49.988Z,1.80
2023-05-01T02:24:16.928Z,1.83
2023-05-01T02:26:49.791Z,3.08
2023-05-01T02:29:16.183Z,1.92
2023-05-01T02:31:42.541Z,3.22
2023-05-01T02:34:09.264Z,2.67
2023-05-01T02:36:35.592Z,1.83
2023-05-01T02:39:02.281Z,2.75
2023-05-01T02:41:31.036Z,3.55
2023-05-01T02:44:01.733Z,1.98
2023-05-01T02:46:30.848Z,2.13
2023-05-01T02:48:59.270Z,1.70
2023-05-01T02:51:27.677Z,1.70
2023-05-01T02:53:55.280Z,5.07
2023-05-01T02:56:22.027Z,3.10
2023-05-01T02:58:49.448Z,4.73
2023-05-01T03:01:16.075Z,3.53
2023-05-01T03:03:42.410Z,4.38
2023-05-01T03:06:09.025Z,7.82
2023-05-01T03:08:36.521Z,1.88
2023-05-01T03:11:07.353Z,2.43
2023-05-01T03:13:34.556Z,2.10
2023-05-01T03:16:01.476Z,2.63
2023-05-01T03:18:27.963Z,3.33
2023-05-01T03:20:55.013Z,2.30
2023-05-01T03:23:21.353Z,3.33
2023-05-01T03:25:47.684Z,2.70
2023-05-01T03:28:14.202Z,3.15
2023-05-01T03:30:40.574Z,2.10
2023-05-01T03:33:06.998Z,2.28
2023-05-01T03:35:33.430Z,2.87
2023-05-01T03:37:59.861Z,2.28
2023-05-01T03:40:26.168Z,3.03
2023-05-01T03:42:52.496Z,6.18
2023-05-01T03:45:18.837Z,5.25
2023-05-01T03:47:45.188Z,2.97
2023-05-01T03:50:11.634Z,3.42
2023-05-01T03:52:37.988Z,2.22
2023-05-01T03:55:04.817Z,1.92
2023-05-01T03:57:31.267Z,2.35
2023-05-01T03:59:57.893Z,1.93
2023-05-01T04:02:24.521Z,3.60
2023-05-01T04:04:51.059Z,3.97
2023-05-01T04:07:17.485Z,2.50
2023-05-01T04:09:43.808Z,3.20
2023-05-01T04:12:10.289Z,4.27
2023-05-01T04:14:36.643Z,2.33
2023-05-01T04:17:03.066Z,3.58
2023-05-01T04:19:29.409Z,3.10
2023-05-01T04:21:55.818Z,3.88
2023-05-01T04:24:22.156Z,2.93
2023-05-01T04:26:48.643Z,2.47
2023-05-01T04:29:15.251Z,2.20
2023-05-01T04:31:43.119Z,6.80
2023-05-01T04:34:09.614Z,3.20
2023-05-01T04:36:36.402Z,2.47
2023-05-01T04:39:05.705Z,2.72
2023-05-01T04:41:32.028Z,3.42
2023-05-01T04:43:58.457Z,1.80
2023-05-01T04:46:24.876Z,2.40
2023-05-01T04:48:51.299Z,1.90
2023-05-01T04:51:17.741Z,4.45
2023-05-01T04:53:44.200Z,9.50
2023-05-01T04:56:10.562Z,2.72
2023-05-01T04:58:36.931Z,8.98
2023-05-01T05:01:03.356Z,2.97
2023-05-01T05:03:29.797Z,4.18
2023-05-01T05:05:56.371Z,3.28
2023-05-01T05:08:22.807Z,6.10
2023-05-01T05:10:49.155Z,4.32
2023-05-01T05:13:15.526Z,4.43
2023-05-01T05:15:41.859Z,5.57
2023-05-01T05:18:08.287Z,7.82
2023-05-01T05:20:38.436Z,6.13
2023-05-01T05:23:04.743Z,4.70
2023-05-01T05:25:31.094Z,3.80
2023-05-01T05:27:57.582Z,6.45
2023-05-01T05:30:24.092Z,6.72
2023-05-01T05:32:50.729Z,5.28
2023-05-01T05:35:17.481Z,11.20
2023-05-01T05:37:46.092Z,5.53
2023-05-01T05:40:12.969Z,6.38
2023-05-01T05:42:39.405Z,9.23
2023-05-01T05:45:06.994Z,4.88
2023-05-01T05:47:33.390Z,7.53
2023-05-01T05:49:59.765Z,5.23
2023-05-01T05:52:26.077Z,4.68
2023-05-01T05:54:52.398Z,6.03
2023-05-01T05:57:18.905Z,6.50
2023-05-01T05:59:45.242Z,7.57
2023-05-01T06:02:11.588Z,3.27
2023-05-01T06:04:37.988Z,5.72
2023-05-01T06:07:06.219Z,7.07
2023-05-01T06:09:33.409Z,5.70
2023-05-01T06:11:59.833Z,4.40
2023-05-01T06:14:26.180Z,4.63
2023-05-01T06:16:52.520Z,4.10
2023-05-01T06:19:18.895Z,4.93
2023-05-01T06:21:45.257Z,3.65
2023-05-01T06:24:12.528Z,16.48
2023-05-01T06:26:38.916Z,6.97
2023-05-01T06:29:05.329Z,7.30
2023-05-01T06:31:31.764Z,7.15
2023-05-01T06:33:58.294Z,4.75
2023-05-01T06:36:24.627Z,5.63
2023-05-01T06:38:51.075Z,10.57
2023-05-01T06:41:17.525Z,4.18
2023-05-01T06:43:43.848Z,7.13
2023-05-01T06:46:10.318Z,8.93
2023-05-01T06:48:36.706Z,9.18
2023-05-01T06:51:03.095Z,8.20
2023-05-01T06:53:29.451Z,7.80
2023-05-01T06:55:55.824Z,8.10
2023-05-01T06:58:24.371Z,5.88
2023-05-01T07:00:51.091Z,7.55
2023-05-01T07:03:17.588Z,5.37
2023-05-01T07:05:44.111Z,6.88
2023-05-01T07:08:10.508Z,4.55
2023-05-01T07:10:37.545Z,4.10
2023-05-01T07:13:05.082Z,6.57
2023-05-01T07:15:31.679Z,5.90
2023-05-01T07:17:58.352Z,6.15
2023-05-01T07:20:24.868Z,4.95
2023-05-01T07:22:51.196Z,5.50
2023-05-01T07:25:17.890Z,8.10
2023-05-01T07:27:44.327Z,6.53
2023-05-01T07:30:11.168Z,8.50
2023-05-01T07:32:37.856Z,6.28
2023-05-01T07:35:04.982Z,6.38
2023-05-01T07:37:31.413Z,10.38
2023-05-01T07:39:58.605Z,5.90
2023-05-01T07:42:29.145Z,5.47
2023-05-01T07:44:55.472Z,8.77
2023-05-01T07:47:22.295Z,5.22
2023-05-01T07:49:49.626Z,6.88
2023-05-01T07:52:16.334Z,4.83
2023-05-01T07:54:42.793Z,7.13
2023-05-01T07:57:09.250Z,4.88
2023-05-01T07:59:35.616Z,7.38
2023-05-01T08:02:02.023Z,8.57
2023-05-01T08:04:29.559Z,9.17
2023-05-01T08:06:56.264Z,7.75
2023-05-01T08:09:22.856Z,13.07
2023-05-01T08:11:49.184Z,8.50
2023-05-01T08:14:17.531Z,5.85
2023-05-01T08:16:44.245Z,8.33
2023-05-01T08:19:10.679Z,6.75
2023-05-01T08:21:37.717Z,5.72
2023-05-01T08:24:04.275Z,7.85
2023-05-01T08:26:30.741Z,9.65
2023-05-01T08:28:57.217Z,18.47
2023-05-01T08:31:25.188Z,9.68
2023-05-01T08:33:51.634Z,6.25
2023-05-01T08:36:20.030Z,8.98
2023-05-01T08:38:47.747Z,6.10
2023-05-01T08:41:22.098Z,7.90
2023-05-01T08:43:49.336Z,9.77
2023-05-01T08:46:39.093Z,10.07
2023-05-01T08:49:07.008Z,5.60
2023-05-01T08:51:34.856Z,6.65
2023-05-01T08:54:03.459Z,6.23
2023-05-01T08:56:31.566Z,9.35
2023-05-01T08:59:01.028Z,7.57
2023-05-01T09:01:28.151Z,6.60
2023-05-01T09:03:55.428Z,9.27
2023-05-01T09:06:22.589Z,6.57
2023-05-01T09:08:48.992Z,8.68
2023-05-01T09:11:15.478Z,8.52
2023-05-01T09:13:41.821Z,7.65
2023-05-01T09:16:08.458Z,7.60
2023-05-01T09:18:35.961Z,10.97
2023-05-01T09:21:03.386Z,8.75
2023-05-01T09:23:32.031Z,8.38
2023-05-01T09:25:59.886Z,7.55
2023-05-01T09:28:46.055Z,5.43
2023-05-01T09:31:28.861Z,4.97
2023-05-01T09:33:56.808Z,9.02
2023-05-01T09:36:25.279Z,7.18
2023-05-01T09:38:52.134Z,7.22
2023-05-01T09:41:20.818Z,7.72
2023-05-01T09:43:51.615Z,6.67
2023-05-01T09:46:18.397Z,5.18
2023-05-01T09:49:03.088Z,11.05
2023-05-01T09:51:31.494Z,6.80
2023-05-01T09:53:59.632Z,7.70
2023-05-01T09:56:31.651Z,8.57
2023-05-01T09:59:13.922Z,7.75
2023-05-01T10:01:42.484Z,10.77
2023-05-01T10:04:09.965Z,4.53
2023-05-01T10:06:37.692Z,5.47
2023-05-01T10:09:06.854Z,7.53
2023-05-01T10:11:49.291Z,5.47
2023-05-01T10:14:16.273Z,9.18
2023-05-01T10:16:43.167Z,6.22
2023-05-01T10:19:10.069Z,7.18
2023-05-01T10:21:36.967Z,8.97
2023-05-01T10:24:04.037Z,4.50
2023-05-01T10:26:30.568Z,6.03
2023-05-01T10:28:59.416Z,6.20
2023-05-01T10:31:29.426Z,3.75
2023-05-01T10:33:56.428Z,4.33
2023-05-01T10:36:32.959Z,5.38
2023-05-01T10:39:00.797Z,8.90
2023-05-01T10:41:58.114Z,4.60
2023-05-01T10:44:27.910Z,5.60
2023-05-01T10:46:55.324Z,4.57
2023-05-01T10:49:22.546Z,5.78
2023-05-01T10:51:58.369Z,5.65
2023-05-01T10:54:32.954Z,5.18
2023-05-01T10:57:01.716Z,1.95
2023-05-01T10:59:59.692Z,4.83
2023-05-01T11:02:26.418Z,6.05
2023-05-01T11:04:54.294Z,7.70
2023-05-01T11:07:22.370Z,4.57
2023-05-01T11:09:58.708Z,6.20
2023-05-01T11:12:46.976Z,6.30
2023-05-01T11:15:25.801Z,5.82
2023-05-01T11:17:52.612Z,6.10
2023-05-01T11:20:25.203Z,6.20
2023-05-01T11:22:57.060Z,6.07
2023-05-01T11:25:33.522Z,5.37
2023-05-01T11:28:01.857Z,6.50
2023-05-01T11:30:38.476Z,7.20
2023-05-01T11:33:05.824Z,6.25
2023-05-01T11:35:33.209Z,8.07
2023-05-01T11:37:59.579Z,4.83
2023-05-01T11:40:31.587Z,5.20
2023-05-01T11:43:08.741Z,5.32
2023-05-01T11:45:37.190Z,6.35
2023-05-01T11:48:05.260Z,3.15
2023-05-01T11:50:36.784Z,4.43
2023-05-01T11:53:07.934Z,4.88
2023-05-01T11:55:35.192Z,5.25
2023-05-01T11:58:02.670Z,4.90
2023-05-01T12:00:36.579Z,7.35
2023-05-01T12:03:14.413Z,5.43
2023-05-01T12:05:43.193Z,5.28
2023-05-01T12:08:11.240Z,13.15
2023-05-01T12:10:39.650Z,5.45
2023-05-01T12:13:07.597Z,10.77
2023-05-01T12:15:39.665Z,4.63
2023-05-01T12:18:06.289Z,6.20
2023-05-01T12:20:58.896Z,5.63
2023-05-01T12:23:40.115Z,5.30
2023-05-01T12:26:23.630Z,9.15
2023-05-01T12:29:10.141Z,5.53
2023-05-01T12:31:38.221Z,4.68
2023-05-01T12:34:06.569Z,7.05
2023-05-01T12:36:35.852Z,10.52
2023-05-01T12:39:04.475Z,8.93
2023-05-01T12:41:44.261Z,6.53
2023-05-01T12:44:24.547Z,8.48
2023-05-01T12:47:01.053Z,9.48
2023-05-01T12:49:28.597Z,14.98
2023-05-01T12:52:00.864Z,7.55
2023-05-01T12:54:29.312Z,7.17
2023-05-01T12:57:14.409Z,6.65
2023-05-01T12:59:42.596Z,9.90
2023-05-01T13:02:11.347Z,5.97
2023-05-01T13:04:39.907Z,5.28
2023-05-01T13:07:17.629Z,6.83
2023-05-01T13:09:58.155Z,5.40
2023-05-01T13:12:26.279Z,5.40
2023-05-01T13:14:53.244Z,8.32
2023-05-01T13:17:31.251Z,6.30
2023-05-01T13:20:03.948Z,7.87
2023-05-01T13:22:34.694Z,8.23
2023-05-01T13:25:02.976Z,5.88
2023-05-01T13:27:29.595Z,6.38
2023-05-01T13:29:58.189Z,9.20
2023-05-01T13:32:25.850Z,5.80
2023-05-01T13:34:58.186Z,8.73
2023-05-01T13:37:24.673Z,13.85
2023-05-01T13:39:51.075Z,5.68
2023-05-01T13:42:24.916Z,6.82
2023-05-01T13:44:54.949Z,8.13
2023-05-01T13:47:26.401Z,5.68
2023-05-01T13:49:52.974Z,5.57
2023-05-01T13:52:20.921Z,5.97
2023-05-01T13:54:48.474Z,6.97
2023-05-01T13:57:16.870Z,9.60
2023-05-01T13:59:45.317Z,6.45
2023-05-01T14:02:28.252Z,7.28
2023-05-01T14:04:55.267Z,5.10
2023-05-01T14:07:23.671Z,9.40
2023-05-01T14:09:54.961Z,7.70
2023-05-01T14:12:28.055Z,5.43
2023-05-01T14:14:54.526Z,9.95
2023-05-01T14:17:34.594Z,4.90
2023-05-01T14:20:02.222Z,7.30
2023-05-01T14:22:53.386Z,7.27
2023-05-01T14:25:31.549Z,4.65
2023-05-01T14:28:00.343Z,3.42
2023-05-01T14:30:33.588Z,4.35
2023-05-01T14:33:06.152Z,4.03
2023-05-01T14:35:33.608Z,3.27
2023-05-01T14:38:05.239Z,3.92
2023-05-01T14:40:33.928Z,4.90
2023-05-01T14:43:00.774Z,5.75
2023-05-01T14:45:27.185Z,4.65
2023-05-01T14:47:53.642Z,4.90
2023-05-01T14:50:22.425Z,4.07
2023-05-01T14:52:56.788Z,3.30
2023-05-01T14:55:29.406Z,4.05
2023-05-01T14:57:56.924Z,3.28
2023-05-01T15:00:24.044Z,2.67
2023-05-01T15:02:51.056Z,4.78
2023-05-01T15:05:17.772Z,3.70
2023-05-01T15:07:44.328Z,4.70
2023-05-01T15:10:11.038Z,4.68
2023-05-01T15:12:37.425Z,3.73
2023-05-01T15:15:04.212Z,4.28
2023-05-01T15:17:32.356Z,4.82
2023-05-01T15:19:58.965Z,5.00
2023-05-01T15:22:26.192Z,9.55
2023-05-01T15:24:52.544Z,5.70
2023-05-01T15:27:18.887Z,5.15
2023-05-01T15:29:45.255Z,4.65
2023-05-01T15:32:13.047Z,5.88
2023-05-01T15:34:40.048Z,8.32
2023-05-01T15:37:06.894Z,6.57
2023-05-01T15:39:33.358Z,5.63
2023-05-01T15:42:00.824Z,6.00
2023-05-01T15:44:28.549Z,4.78
2023-05-01T15:46:55.043Z,4.85
2023-05-01T15:49:21.465Z,4.87
2023-05-01T15:51:47.779Z,5.72
2023-05-01T15:54:14.167Z,6.35
2023-05-01T15:56:40.585Z,6.63
2023-05-01T15:59:07.859Z,5.50
2023-05-01T16:01:35.421Z,6.67
2023-05-01T16:04:03.526Z,5.32
2023-05-01T16:06:31.161Z,6.15
2023-05-01T16:08:58.763Z,5.15
2023-05-01T16:11:25.129Z,6.18
2023-05-01T16:13:52.733Z,6.20
2023-05-01T16:16:25.278Z,8.32
2023-05-01T16:18:55.144Z,5.97
2023-05-01T16:21:22.351Z,6.25
2023-05-01T16:23:49.176Z,6.78
2023-05-01T16:26:21.660Z,7.67
2023-05-01T16:28:48.520Z,7.05
2023-05-01T16:31:26.734Z,7.03
2023-05-01T16:33:54.016Z,5.88
2023-05-01T16:36:21.371Z,5.10
2023-05-01T16:38:47.811Z,7.20
2023-05-01T16:41:16.031Z,7.13
2023-05-01T16:43:42.555Z,8.27
2023-05-01T16:46:09.658Z,9.15
2023-05-01T16:48:36.336Z,8.13
2023-05-01T16:51:06.097Z,9.33
2023-05-01T16:53:32.857Z,11.95
2023-05-01T16:55:59.215Z,8.65
2023-05-01T16:58:27.824Z,10.52
2023-05-01T17:00:55.423Z,9.25
2023-05-01T17:03:21.760Z,10.40
2023-05-01T17:05:48.105Z,9.95
2023-05-01T17:08:14.434Z,11.32
2023-05-01T17:10:40.870Z,10.93
2023-05-01T17:13:07.705Z,14.80
2023-05-01T17:15:34.067Z,11.67
2023-05-01T17:18:00.440Z,9.20
2023-05-01T17:20:27.293Z,10.35
2023-05-01T17:22:53.898Z,8.60
2023-05-01T17:25:20.348Z,11.25
2023-05-01T17:27:46.698Z,9.27
2023-05-01T17:30:13.621Z,8.07
2023-05-01T17:32:40.103Z,11.68
2023-05-01T17:35:06.845Z,8.43
2023-05-01T17:37:33.383Z,11.38
2023-05-01T17:40:04.960Z,9.70
2023-05-01T17:42:31.353Z,9.57
2023-05-01T17:44:57.680Z,10.25
2023-05-01T17:47:26.128Z,9.82
2023-05-01T17:49:52.774Z,8.63
2023-05-01T17:52:19.110Z,10.53
2023-05-01T17:54:45.444Z,13.65
2023-05-01T17:57:11.873Z,9.65
2023-05-01T17:59:38.215Z,10.23
2023-05-01T18:02:04.602Z,12.63
2023-05-01T18:04:31.047Z,9.87
2023-05-01T18:06:57.940Z,11.25
2023-05-01T18:09:24.331Z,12.88
2023-05-01T18:11:50.822Z,11.88
2023-05-01T18:14:17.187Z,12.98
2023-05-01T18:16:43.562Z,15.47
2023-05-01T18:19:09.948Z,12.07
2023-05-01T18:21:36.451Z,15.95
2023-05-01T18:24:03.217Z,12.50
2023-05-01T18:26:30.705Z,14.98
2023-05-01T18:28:57.034Z,14.83
2023-05-01T18:31:23.524Z,12.40
2023-05-01T18:33:49.900Z,13.38
2023-05-01T18:36:16.391Z,17.58
2023-05-01T18:38:42.736Z,17.88
2023-05-01T18:41:09.086Z,14.40
2023-05-01T18:43:35.576Z,18.65
2023-05-01T18:46:02.095Z,18.15
2023-05-01T18:48:28.557Z,16.15
2023-05-01T18:51:07.226Z,15.20
2023-05-01T18:53:34.697Z,15.30
2023-05-01T18:56:01.206Z,18.55
2023-05-01T18:58:27.604Z,18.30
2023-05-01T19:00:55.133Z,18.80
2023-05-01T19:03:21.444Z,19.10
2023-05-01T19:05:48.042Z,17.70
2023-05-01T19:08:14.544Z,19.25
2023-05-01T19:10:42.296Z,20.05
2023-05-01T19:13:08.665Z,19.15
2023-05-01T19:15:36.267Z,18.60
2023-05-01T19:18:02.775Z,19.13
2023-05-01T19:20:29.230Z,19.83
2023-05-01T19:22:55.571Z,21.02
2023-05-01T19:25:22.016Z,19.05
2023-05-01T19:27:49.098Z,21.70
2023-05-01T19:30:16.253Z,17.83
2023-05-01T19:32:42.726Z,18.95
2023-05-01T19:35:11.430Z,16.67
2023-05-01T19:37:39.647Z,17.95
2023-05-01T19:40:06.729Z,17.73
2023-05-01T19:42:33.773Z,21.07
2023-05-01T19:45:00.411Z,19.77
2023-05-01T19:47:27.901Z,21.02
2023-05-01T19:49:54.310Z,18.40
2023-05-01T19:52:21.083Z,16.63
2023-05-01T19:54:47.510Z,19.47
2023-05-01T19:57:14.350Z,20.08
2023-05-01T19:59:41.226Z,18.77
2023-05-01T20:02:07.730Z,20.70
2023-05-01T20:07:02.622Z,21.37
2023-05-01T20:09:28.947Z,22.20
2023-05-01T20:11:55.304Z,19.23
2023-05-01T20:14:21.738Z,21.23
2023-05-01T20:16:50.414Z,21.67
2023-05-01T20:19:17.719Z,25.03
2023-05-01T20:21:44.250Z,23.33
2023-05-01T20:24:11.222Z,27.05
2023-05-01T20:26:37.547Z,23.13
2023-05-01T20:29:04.060Z,25.35
2023-05-01T20:31:30.635Z,26.67
2023-05-01T20:33:57.026Z,26.02
2023-05-01T20:36:25.272Z,29.48
2023-05-01T20:38:53.173Z,29.30
2023-05-01T20:41:19.637Z,31.88
2023-05-01T20:43:46.406Z,29.03
2023-05-01T20:46:12.819Z,30.58
2023-05-01T20:48:39.179Z,27.23
2023-05-01T20:51:05.595Z,28.90
2023-05-01T20:53:32.030Z,27.10
2023-05-01T20:55:58.510Z,31.17
2023-05-01T20:58:24.907Z,28.27
2023-05-01T21:00:53.834Z,29.67
2023-05-01T21:03:20.356Z,27.73
2023-05-01T21:05:47.657Z,30.30
2023-05-01T21:08:14.987Z,26.20
2023-05-01T21:10:41.459Z,29.73
2023-05-01T21:13:07.830Z,37.20
2023-05-01T21:15:34.259Z,34.85
2023-05-01T21:18:01.241Z,36.05
2023-05-01T21:20:32.940Z,35.03
2023-05-01T21:23:00.436Z,34.92
2023-05-01T21:25:28.293Z,33.42
2023-05-01T21:27:55.060Z,39.08
2023-05-01T21:30:29.704Z,31.92
2023-05-01T21:32:58.103Z,35.60
2023-05-01T21:35:26.424Z,32.17
2023-05-01T21:37:52.876Z,31.45
2023-05-01T21:40:19.709Z,34.13
2023-05-01T21:42:46.436Z,32.80
2023-05-01T21:45:14.824Z,32.87
2023-05-01T21:47:51.568Z,29.67
2023-05-01T21:50:19.987Z,30.33
2023-05-01T21:52:48.996Z,27.52
2023-05-01T21:55:24.873Z,31.08
2023-05-01T21:57:51.262Z,30.47
2023-05-01T22:00:18.965Z,30.38
2023-05-01T22:02:47.922Z,27.65
2023-05-01T22:05:16.412Z,30.52
2023-05-01T22:07:45.011Z,27.52
2023-05-01T22:10:14.117Z,27.70
2023-05-01T22:12:41.779Z,29.85
2023-05-01T22:15:10.174Z,21.58
2023-05-01T22:17:37.594Z,22.58
2023-05-01T22:20:08.620Z,18.88
2023-05-01T22:22:35.662Z,16.63
2023-05-01T22:25:02.726Z,17.10
2023-05-01T22:27:29.287Z,18.02
2023-05-01T22:29:55.670Z,17.10
2023-05-01T22:32:22.123Z,16.55
2023-05-01T22:34:48.622Z,16.10
2023-05-01T22:37:15.606Z,16.30
2023-05-01T22:39:42.532Z,16.90
2023-05-01T22:42:08.869Z,14.93
2023-05-01T22:44:35.637Z,16.83
2023-05-01T22:47:02.253Z,17.77
2023-05-01T22:49:28.836Z,16.83
2023-05-01T22:51:55.963Z,15.63
2023-05-01T22:54:22.428Z,16.60
2023-05-01T22:56:49.880Z,16.73
2023-05-01T22:59:16.994Z,15.50
2023-05-01T23:01:43.948Z,17.23
2023-05-01T23:04:10.941Z,17.80
2023-05-01T23:06:37.684Z,16.20
2023-05-01T23:09:04.517Z,17.13
2023-05-01T23:11:32.460Z,17.03
2023-05-01T23:13:59.449Z,18.05
2023-05-01T23:16:26.170Z,17.38
2023-05-01T23:18:55.797Z,14.52
2023-05-01T23:21:22.206Z,18.98
2023-05-01T23:23:48.878Z,17.33
2023-05-01T23:26:28.997Z,19.08
2023-05-01T23:28:55.385Z,19.55
2023-05-01T23:31:26.174Z,16.40
2023-05-01T23:33:53.672Z,21.08
2023-05-01T23:36:20.618Z,21.07
2023-05-01T23:38:47.278Z,19.23
2023-05-01T23:41:14.491Z,18.33
2023-05-01T23:43:41.338Z,21.08
2023-05-01T23:46:08.127Z,23.92
2023-05-01T23:48:34.795Z,26.17
2023-05-01T23:51:02.652Z,27.67
2023-05-01T23:53:29.244Z,26.20
2023-05-01T23:55:55.676Z,26.23
2023-05-01T23:58:22.833Z,29.90
